createdAt,value
2019-05-16T00:00:49.436Z,24.40
2019-05-16T00:03:20.904Z,24.37
2019-05-16T00:05:54.500Z,24.36
2019-05-16T00:08:28.523Z,24.37
2019-05-16T00:11:01.429Z,24.34
2019-05-16T00:13:35.163Z,24.31
2019-05-16T00:16:08.037Z,24.33
2019-05-16T00:18:40.652Z,24.31
2019-05-16T00:21:13.219Z,24.30
2019-05-16T00:23:45.798Z,24.32
2019-05-16T00:26:19.706Z,24.32
2019-05-16T00:28:52.476Z,24.25
2019-05-16T00:31:25.191Z,24.23
2019-05-16T00:33:57.917Z,24.26
2019-05-16T00:36:30.737Z,24.22
2019-05-16T00:39:03.284Z,24.33
2019-05-16T00:41:38.371Z,24.28
2019-05-16T00:44:11.370Z,24.30
2019-05-16T00:46:43.879Z,24.28
2019-05-16T00:49:18.564Z,24.29
2019-05-16T00:51:50.349Z,24.20
2019-05-16T00:54:22.890Z,24.23
2019-05-16T00:56:57.687Z,24.25
2019-05-16T00:59:30.329Z,24.23
2019-05-16T01:02:02.775Z,24.22
2019-05-16T01:04:35.129Z,24.26
2019-05-16T01:07:08.215Z,24.29
2019-05-16T01:09:40.679Z,24.21
2019-05-16T01:12:12.907Z,24.24
2019-05-16T01:14:45.130Z,24.17
2019-05-16T01:17:18.722Z,24.20
2019-05-16T01:19:54.023Z,24.14
2019-05-16T01:22:28.826Z,24.31
2019-05-16T01:25:01.743Z,24.39
2019-05-16T01:27:34.339Z,24.38
2019-05-16T01:30:09.043Z,24.32
2019-05-16T01:32:42.054Z,24.31
2019-05-16T01:35:14.519Z,24.36
2019-05-16T01:37:48.825Z,24.32
2019-05-16T01:40:21.502Z,24.31
2019-05-16T01:42:54.098Z,24.39
2019-05-16T01:45:27.769Z,24.53
2019-05-16T01:48:00.237Z,24.75
2019-05-16T01:50:32.543Z,24.89
2019-05-16T01:53:05.005Z,25.26
2019-05-16T01:55:38.109Z,25.48
2019-05-16T01:58:10.868Z,25.17
2019-05-16T02:00:52.785Z,25.00
2019-05-16T02:03:19.211Z,25.05
2019-05-16T02:05:51.733Z,25.10
2019-05-16T02:08:24.180Z,25.13
2019-05-16T02:10:58.387Z,25.19
2019-05-16T02:13:32.075Z,25.21
2019-05-16T02:16:04.476Z,25.68
2019-05-16T02:18:38.205Z,25.68
2019-05-16T02:21:10.734Z,25.16
2019-05-16T02:23:43.322Z,24.97
2019-05-16T02:26:15.864Z,24.88
2019-05-16T02:28:50.666Z,24.82
2019-05-16T02:31:23.063Z,24.78
2019-05-16T02:33:55.846Z,24.77
2019-05-16T02:36:31.309Z,24.79
2019-05-16T02:39:02.425Z,24.81
2019-05-16T02:41:35.044Z,24.83
2019-05-16T02:44:07.954Z,24.84
2019-05-16T02:46:41.812Z,24.83
2019-05-16T02:49:14.607Z,24.82
2019-05-16T02:51:47.280Z,24.83
2019-05-16T02:54:21.883Z,24.82
2019-05-16T02:56:54.297Z,24.79
2019-05-16T02:59:26.809Z,24.79
2019-05-16T03:02:00.932Z,24.80
2019-05-16T03:04:33.648Z,24.77
2019-05-16T03:07:06.243Z,24.79
2019-05-16T03:09:41.027Z,24.82
2019-05-16T03:12:13.036Z,24.87
2019-05-16T03:14:47.118Z,24.87
2019-05-16T03:17:21.496Z,24.88
2019-05-16T03:19:55.716Z,24.88
2019-05-16T03:22:31.245Z,24.89
2019-05-16T03:25:02.581Z,24.89
2019-05-16T03:27:35.171Z,24.90
2019-05-16T03:30:07.720Z,25.02
2019-05-16T03:32:45.142Z,25.06
2019-05-16T03:35:16.393Z,24.99
2019-05-16T03:37:55.624Z,24.99
2019-05-16T03:40:31.055Z,24.97
2019-05-16T03:43:02.609Z,24.95
2019-05-16T03:45:35.153Z,25.04
2019-05-16T03:48:07.541Z,25.02
2019-05-16T03:50:41.264Z,25.08
2019-05-16T03:53:14.077Z,25.17
2019-05-16T03:55:46.959Z,25.54
2019-05-16T03:58:22.421Z,25.76
2019-05-16T04:00:55.287Z,25.84
2019-05-16T04:03:32.068Z,25.38
2019-05-16T04:06:02.243Z,25.33
2019-05-16T04:08:34.913Z,25.22
2019-05-16T04:11:07.593Z,25.12
2019-05-16T04:13:41.114Z,25.15
2019-05-16T04:16:14.249Z,25.13
2019-05-16T04:18:46.746Z,25.25
2019-05-16T04:21:21.788Z,25.28
2019-05-16T04:23:53.838Z,25.59
2019-05-16T04:26:26.404Z,25.77
2019-05-16T04:29:00.785Z,25.91
2019-05-16T04:31:32.713Z,26.02
2019-05-16T04:34:05.240Z,26.13
2019-05-16T04:36:40.435Z,26.24
2019-05-16T04:39:12.313Z,26.29
2019-05-16T04:41:44.801Z,26.34
2019-05-16T04:44:17.133Z,26.38
2019-05-16T04:46:50.959Z,26.49
2019-05-16T04:49:23.831Z,26.80
2019-05-16T04:51:56.407Z,27.23
2019-05-16T04:54:30.784Z,27.32
2019-05-16T04:57:03.630Z,27.41
2019-05-16T04:59:36.171Z,27.35
2019-05-16T05:02:11.941Z,27.36
2019-05-16T05:05:13.908Z,27.38
2019-05-16T05:07:46.173Z,27.38
2019-05-16T05:10:20.746Z,27.42
2019-05-16T05:15:35.416Z,27.47
2019-05-16T05:18:10.187Z,27.49
2019-05-16T05:20:42.121Z,27.52
2019-05-16T05:23:14.624Z,27.55
2019-05-16T05:25:47.110Z,27.57
2019-05-16T05:28:21.018Z,27.60
2019-05-16T05:30:53.814Z,27.63
2019-05-16T05:33:26.353Z,27.66
2019-05-16T05:36:01.138Z,27.66
2019-05-16T05:38:33.061Z,27.73
2019-05-16T05:41:05.796Z,27.74
2019-05-16T05:43:39.775Z,27.76
2019-05-16T05:46:12.213Z,27.76
2019-05-16T05:48:44.922Z,27.74
2019-05-16T05:51:17.405Z,27.77
2019-05-16T05:53:50.976Z,27.78
2019-05-16T05:56:23.513Z,27.78
2019-05-16T05:58:58.266Z,27.76
2019-05-16T06:01:31.564Z,27.74
2019-05-16T06:04:04.399Z,27.79
2019-05-16T06:06:36.912Z,27.78
2019-05-16T06:09:14.348Z,27.83
2019-05-16T06:11:43.845Z,27.84
2019-05-16T06:14:16.364Z,27.88
2019-05-16T06:16:50.860Z,27.92
2019-05-16T06:19:22.768Z,27.92
2019-05-16T06:21:55.149Z,27.91
2019-05-16T06:24:27.648Z,27.96
2019-05-16T06:27:00.928Z,28.07
2019-05-16T06:29:33.616Z,28.06
2019-05-16T06:32:06.067Z,28.02
2019-05-16T06:34:40.293Z,28.05
2019-05-16T06:37:12.241Z,28.08
2019-05-16T06:39:45.404Z,28.11
2019-05-16T06:42:20.454Z,28.09
2019-05-16T06:44:52.288Z,28.09
2019-05-16T06:47:25.182Z,28.11
2019-05-16T06:50:00.067Z,28.10
2019-05-16T06:52:31.918Z,28.12
2019-05-16T06:55:05.293Z,28.13
2019-05-16T06:57:40.647Z,28.16
2019-05-16T07:00:13.397Z,28.19
2019-05-16T07:02:46.959Z,28.19
2019-05-16T07:05:20.882Z,28.25
2019-05-16T07:07:53.938Z,28.29
2019-05-16T07:10:26.673Z,28.35
2019-05-16T07:13:00.811Z,28.41
2019-05-16T07:15:33.498Z,28.40
2019-05-16T07:18:06.417Z,28.41
2019-05-16T07:20:39.986Z,28.39
2019-05-16T07:23:12.676Z,28.44
2019-05-16T07:25:45.566Z,28.46
2019-05-16T07:28:20.547Z,28.49
2019-05-16T07:30:52.125Z,28.58
2019-05-16T07:33:24.816Z,28.62
2019-05-16T07:35:57.426Z,28.54
2019-05-16T07:38:31.021Z,28.50
2019-05-16T07:41:04.443Z,28.50
2019-05-16T07:43:37.222Z,28.53
2019-05-16T07:46:11.110Z,28.53
2019-05-16T07:48:43.959Z,28.53
2019-05-16T07:51:16.426Z,28.56
2019-05-16T07:53:50.459Z,28.57
2019-05-16T07:56:22.762Z,28.57
2019-05-16T07:58:55.362Z,28.59
2019-05-16T08:01:27.823Z,28.59
2019-05-16T08:04:00.305Z,28.59
2019-05-16T08:06:34.050Z,28.61
2019-05-16T08:09:07.990Z,28.64
2019-05-16T08:11:41.329Z,28.69
2019-05-16T08:14:13.848Z,28.69
2019-05-16T08:16:46.132Z,28.70
2019-05-16T08:19:20.001Z,28.72
2019-05-16T08:21:52.560Z,28.74
2019-05-16T08:24:25.031Z,28.78
2019-05-16T08:27:00.998Z,28.83
2019-05-16T08:29:31.832Z,28.87
2019-05-16T08:32:04.271Z,28.87
2019-05-16T08:34:40.808Z,28.87
2019-05-16T08:37:32.784Z,28.89
2019-05-16T08:39:45.885Z,28.91
2019-05-16T08:42:20.760Z,28.92
2019-05-16T08:44:52.399Z,28.92
2019-05-16T08:47:24.904Z,28.96
2019-05-16T08:50:00.416Z,28.98
2019-05-16T08:52:31.756Z,28.95
2019-05-16T08:55:04.230Z,28.99
2019-05-16T08:57:37.078Z,29.02
2019-05-16T09:00:14.618Z,29.00
2019-05-16T09:02:44.574Z,29.03
2019-05-16T09:05:17.227Z,29.08
2019-05-16T09:07:49.878Z,29.14
2019-05-16T09:12:57.260Z,29.16
2019-05-16T09:15:29.519Z,29.18
2019-05-16T09:18:01.962Z,29.19
2019-05-16T09:20:37.372Z,29.21
2019-05-16T09:23:08.254Z,29.22
2019-05-16T09:25:40.808Z,29.23
2019-05-16T09:28:16.754Z,29.22
2019-05-16T09:30:48.626Z,29.24
2019-05-16T09:33:21.143Z,29.23
2019-05-16T09:35:53.577Z,29.24
2019-05-16T09:38:28.443Z,29.26
2019-05-16T09:41:00.424Z,29.27
2019-05-16T09:43:32.828Z,29.28
2019-05-16T09:46:07.782Z,29.31
2019-05-16T09:48:40.214Z,29.32
2019-05-16T09:51:12.767Z,29.35
2019-05-16T09:53:47.107Z,29.38
2019-05-16T09:56:19.434Z,29.38
2019-05-16T09:58:51.955Z,29.39
2019-05-16T10:01:24.456Z,29.42
2019-05-16T10:03:57.019Z,29.45
2019-05-16T10:06:29.609Z,29.50
2019-05-16T10:10:33.626Z,28.95
2019-05-16T10:13:08.018Z,28.54
2019-05-16T10:15:42.058Z,28.03
2019-05-16T10:18:16.881Z,27.75
2019-05-16T10:20:51.158Z,27.46
2019-05-16T10:23:25.345Z,27.29
2019-05-16T10:25:59.445Z,27.11
2019-05-16T10:28:33.815Z,26.89
2019-05-16T10:31:08.282Z,26.89
2019-05-16T10:33:42.702Z,26.65
2019-05-16T10:36:21.232Z,26.72
2019-05-16T10:38:53.204Z,26.70
2019-05-16T10:41:27.524Z,26.54
2019-05-16T10:44:03.222Z,26.45
2019-05-16T10:46:37.807Z,26.30
2019-05-16T10:49:12.412Z,26.36
2019-05-16T10:51:47.158Z,26.22
2019-05-16T10:54:21.899Z,26.25
2019-05-16T10:56:57.661Z,26.23
2019-05-16T11:00:01.948Z,26.18
2019-05-16T11:02:07.972Z,26.17
2019-05-16T11:04:57.375Z,26.05
2019-05-16T11:07:19.117Z,25.99
2019-05-16T11:09:59.348Z,25.95
2019-05-16T11:12:45.868Z,25.91
2019-05-16T11:15:07.869Z,25.88
2019-05-16T11:17:41.386Z,25.98
2019-05-16T11:20:19.642Z,26.01
2019-05-16T11:22:51.690Z,26.02
2019-05-16T11:25:32.261Z,25.82
2019-05-16T11:28:01.840Z,25.90
2019-05-16T11:30:37.603Z,25.84
2019-05-16T11:33:12.081Z,25.87
2019-05-16T11:35:47.585Z,25.86
2019-05-16T11:38:22.560Z,25.78
2019-05-16T11:40:56.980Z,25.72
2019-05-16T11:43:31.213Z,25.78
2019-05-16T11:46:05.214Z,25.66
2019-05-16T11:48:39.448Z,25.64
2019-05-16T11:51:13.678Z,25.67
2019-05-16T11:53:47.858Z,25.71
2019-05-16T11:56:22.131Z,25.66
2019-05-16T11:58:57.051Z,25.66
2019-05-16T12:01:31.355Z,25.70
2019-05-16T12:04:07.938Z,25.66
2019-05-16T12:06:41.719Z,25.71
2019-05-16T12:09:17.815Z,25.74
2019-05-16T12:12:02.617Z,25.60
2019-05-16T12:14:28.010Z,25.68
2019-05-16T12:17:02.192Z,25.71
2019-05-16T12:19:43.482Z,25.66
2019-05-16T12:22:12.760Z,25.72
2019-05-16T12:24:47.715Z,25.80
2019-05-16T12:27:22.115Z,25.78
2019-05-16T12:29:58.988Z,25.76
2019-05-16T12:32:32.221Z,25.69
2019-05-16T12:35:06.677Z,25.71
2019-05-16T12:37:40.774Z,25.72
2019-05-16T12:40:15.337Z,25.72
2019-05-16T12:42:49.390Z,25.72
2019-05-16T12:45:23.872Z,25.62
2019-05-16T12:47:57.909Z,25.63
2019-05-16T12:50:32.261Z,25.71
2019-05-16T12:53:07.985Z,25.70
2019-05-16T12:55:42.667Z,25.59
2019-05-16T12:58:24.963Z,25.63
2019-05-16T13:00:54.936Z,25.58
2019-05-16T13:03:28.556Z,25.65
2019-05-16T13:06:02.661Z,25.44
2019-05-16T13:08:37.564Z,25.59
2019-05-16T13:11:12.040Z,25.58
2019-05-16T13:14:02.553Z,25.63
2019-05-16T13:16:23.810Z,25.60
2019-05-16T13:18:57.829Z,25.57
2019-05-16T13:21:32.163Z,25.52
2019-05-16T13:24:07.024Z,25.55
2019-05-16T13:26:41.360Z,25.56
2019-05-16T13:29:18.144Z,25.53
2019-05-16T13:31:57.065Z,26.20
2019-05-16T13:34:31.367Z,27.11
2019-05-16T13:37:07.556Z,27.50
2019-05-16T13:39:41.754Z,27.87
2019-05-16T13:42:16.668Z,28.07
2019-05-16T13:44:50.983Z,28.26
2019-05-16T13:47:26.838Z,28.37
2019-05-16T13:50:01.065Z,28.49
2019-05-16T13:52:36.575Z,28.52
2019-05-16T13:55:11.368Z,28.58
2019-05-16T13:57:45.496Z,28.61
2019-05-16T14:00:20.056Z,28.67
2019-05-16T14:02:54.342Z,28.74
2019-05-16T14:05:28.653Z,28.80
2019-05-16T14:08:02.894Z,28.86
2019-05-16T14:10:37.840Z,28.86
2019-05-16T14:13:16.376Z,28.92
2019-05-16T14:15:48.322Z,28.97
2019-05-16T14:18:22.660Z,29.04
2019-05-16T14:20:57.305Z,28.94
2019-05-16T14:23:31.543Z,28.86
2019-05-16T14:26:07.150Z,28.83
2019-05-16T14:28:44.643Z,28.81
2019-05-16T14:31:18.697Z,28.79
2019-05-16T14:33:53.267Z,28.79
2019-05-16T14:36:28.052Z,28.79
2019-05-16T14:39:03.761Z,28.80
2019-05-16T14:41:38.648Z,28.80
2019-05-16T14:44:12.879Z,28.82
2019-05-16T14:46:47.617Z,28.82
2019-05-16T14:49:22.090Z,28.84
2019-05-16T14:51:58.021Z,28.84
2019-05-16T14:54:31.939Z,28.85
2019-05-16T14:57:06.354Z,28.87
2019-05-16T14:59:41.654Z,28.87
2019-05-16T15:02:18.126Z,28.88
2019-05-16T15:04:51.724Z,28.91
2019-05-16T15:07:27.709Z,28.91
2019-05-16T15:10:01.837Z,28.92
2019-05-16T15:12:37.678Z,28.97
2019-05-16T15:15:21.156Z,28.95
2019-05-16T15:17:53.289Z,28.95
2019-05-16T15:20:28.082Z,29.00
2019-05-16T15:23:02.451Z,29.02
2019-05-16T15:25:38.052Z,29.39
2019-05-16T15:28:12.364Z,29.56
2019-05-16T15:30:47.003Z,29.56
2019-05-16T15:33:21.040Z,29.53
2019-05-16T15:35:57.516Z,29.58
2019-05-16T15:38:30.415Z,29.60
2019-05-16T15:41:04.466Z,29.58
2019-05-16T15:43:38.651Z,29.65
2019-05-16T15:46:12.952Z,29.67
2019-05-16T15:48:48.765Z,29.40
2019-05-16T15:51:23.996Z,28.85
2019-05-16T15:53:59.253Z,28.45
2019-05-16T15:56:33.962Z,28.19
2019-05-16T15:59:10.050Z,27.98
2019-05-16T16:01:47.173Z,27.88
2019-05-16T16:04:20.196Z,27.83
2019-05-16T16:06:54.348Z,27.85
2019-05-16T16:09:28.485Z,27.83
2019-05-16T16:12:02.678Z,27.82
2019-05-16T16:14:36.921Z,27.77
2019-05-16T16:17:12.447Z,27.65
2019-05-16T16:19:47.150Z,27.48
2019-05-16T16:25:26.792Z,27.29
2019-05-16T16:28:01.547Z,27.11
2019-05-16T16:30:37.383Z,27.01
2019-05-16T16:33:24.531Z,26.93
2019-05-16T16:35:48.197Z,26.83
2019-05-16T16:38:22.482Z,26.77
2019-05-16T16:40:57.448Z,26.73
2019-05-16T16:43:31.814Z,26.63
2019-05-16T16:46:13.015Z,26.55
2019-05-16T16:48:43.471Z,26.52
2019-05-16T16:51:17.918Z,26.48
2019-05-16T16:53:52.175Z,26.45
2019-05-16T16:56:27.449Z,26.39
2019-05-16T16:59:03.282Z,26.36
2019-05-16T17:01:37.683Z,26.31
2019-05-16T17:04:11.989Z,26.28
2019-05-16T17:06:46.979Z,26.24
2019-05-16T17:09:21.101Z,26.36
2019-05-16T17:11:57.120Z,26.26
2019-05-16T17:14:31.301Z,26.19
2019-05-16T17:17:07.039Z,26.13
2019-05-16T17:19:44.067Z,26.08
2019-05-16T17:22:20.929Z,26.04
2019-05-16T17:24:56.520Z,26.07
2019-05-16T17:27:30.288Z,26.03
2019-05-16T17:30:07.231Z,25.92
2019-05-16T17:32:43.698Z,25.89
2019-05-16T17:35:19.170Z,25.86
2019-05-16T17:37:53.597Z,25.81
2019-05-16T17:40:38.482Z,25.80
2019-05-16T17:43:13.026Z,25.76
2019-05-16T17:45:47.308Z,25.72
2019-05-16T17:48:21.641Z,25.70
2019-05-16T17:50:57.024Z,25.69
2019-05-16T17:53:33.384Z,25.69
2019-05-16T17:56:08.068Z,25.63
2019-05-16T17:58:49.389Z,25.60
2019-05-16T18:01:23.694Z,25.57
2019-05-16T18:03:58.323Z,25.52
2019-05-16T18:06:32.508Z,25.49
2019-05-16T18:09:07.490Z,25.43
2019-05-16T18:11:41.713Z,25.45
2019-05-16T18:14:17.150Z,25.44
2019-05-16T18:16:58.541Z,25.41
2019-05-16T18:19:27.858Z,25.41
2019-05-16T18:22:01.925Z,25.41
2019-05-16T18:24:36.917Z,25.38
2019-05-16T18:27:12.465Z,25.39
2019-05-16T18:29:47.121Z,25.36
2019-05-16T18:32:21.485Z,25.35
2019-05-16T18:34:56.422Z,25.29
2019-05-16T18:37:33.295Z,25.25
2019-05-16T18:40:07.337Z,25.24
2019-05-16T18:42:41.643Z,25.22
2019-05-16T18:45:16.619Z,25.24
2019-05-16T18:47:50.989Z,25.26
2019-05-16T18:50:26.588Z,25.22
2019-05-16T18:53:00.721Z,25.21
2019-05-16T18:55:38.113Z,25.19
2019-05-16T18:58:12.384Z,25.18
2019-05-16T19:00:46.831Z,25.15
2019-05-16T19:03:21.216Z,25.11
2019-05-16T19:05:57.150Z,25.15
2019-05-16T19:08:31.571Z,24.81
2019-05-16T19:11:07.431Z,24.41
2019-05-16T19:13:41.914Z,24.22
2019-05-16T19:16:16.997Z,24.13
2019-05-16T19:18:51.349Z,24.08
2019-05-16T19:21:26.219Z,24.11
2019-05-16T19:24:00.619Z,24.13
2019-05-16T19:26:34.521Z,24.19
2019-05-16T19:29:08.710Z,24.66
2019-05-16T19:31:46.414Z,24.60
2019-05-16T19:34:20.016Z,23.96
2019-05-16T19:36:57.381Z,23.46
2019-05-16T19:39:31.161Z,23.28
2019-05-16T19:42:06.461Z,23.26
2019-05-16T19:44:40.782Z,23.20
2019-05-16T19:47:14.987Z,23.16
2019-05-16T19:49:49.126Z,23.18
2019-05-16T19:52:23.626Z,23.31
2019-05-16T19:54:57.778Z,23.49
2019-05-16T19:57:32.133Z,23.65
2019-05-16T20:00:06.650Z,23.79
2019-05-16T20:02:41.132Z,23.87
2019-05-16T20:05:17.049Z,23.93
2019-05-16T20:07:52.969Z,23.99
2019-05-16T20:10:27.867Z,23.99
2019-05-16T20:13:02.373Z,24.00
2019-05-16T20:15:36.959Z,23.99
2019-05-16T20:18:11.392Z,24.00
2019-05-16T20:20:47.231Z,24.00
2019-05-16T20:23:21.803Z,24.01
2019-05-16T20:25:57.154Z,24.01
2019-05-16T20:28:31.588Z,24.00
2019-05-16T20:31:07.878Z,24.03
2019-05-16T20:33:42.346Z,24.06
2019-05-16T20:36:17.335Z,24.05
2019-05-16T20:38:51.692Z,24.10
2019-05-16T20:41:27.342Z,24.04
2019-05-16T20:44:01.711Z,24.01
2019-05-16T20:46:36.074Z,24.05
2019-05-16T20:49:10.093Z,24.05
2019-05-16T20:51:46.611Z,24.05
2019-05-16T20:54:20.848Z,24.05
2019-05-16T20:56:57.426Z,24.05
2019-05-16T20:59:31.590Z,24.01
2019-05-16T21:02:06.858Z,24.02
2019-05-16T21:04:41.432Z,24.04
2019-05-16T21:07:17.191Z,24.04
2019-05-16T21:09:51.639Z,24.02
2019-05-16T21:12:26.568Z,23.99
2019-05-16T21:15:00.869Z,24.12
2019-05-16T21:17:35.074Z,24.31
2019-05-16T21:20:09.665Z,24.69
2019-05-16T21:22:43.964Z,24.27
2019-05-16T21:25:18.917Z,23.96
2019-05-16T21:27:53.072Z,23.79
2019-05-16T21:30:27.476Z,23.75
2019-05-16T21:33:01.816Z,23.72
2019-05-16T21:35:36.488Z,23.71
2019-05-16T21:38:10.890Z,23.71
2019-05-16T21:40:45.149Z,23.62
2019-05-16T21:43:19.368Z,23.75
2019-05-16T21:45:53.579Z,24.06
2019-05-16T21:48:28.035Z,24.42
2019-05-16T21:51:03.485Z,24.08
2019-05-16T21:53:37.766Z,23.80
2019-05-16T21:56:12.085Z,23.76
2019-05-16T21:58:47.353Z,23.81
2019-05-16T22:01:26.596Z,23.87
2019-05-16T22:04:00.250Z,23.97
2019-05-16T22:06:36.597Z,24.04
2019-05-16T22:09:11.139Z,24.32
2019-05-16T22:11:46.650Z,24.34
2019-05-16T22:14:24.774Z,23.86
2019-05-16T22:16:58.890Z,23.95
2019-05-16T22:19:33.122Z,24.35
2019-05-16T22:22:07.525Z,24.55
2019-05-16T22:24:41.852Z,24.16
2019-05-16T22:27:17.355Z,23.78
2019-05-16T22:29:51.906Z,23.66
2019-05-16T22:32:27.165Z,23.69
2019-05-16T22:35:03.286Z,23.79
2019-05-16T22:37:49.327Z,23.78
2019-05-16T22:40:14.027Z,23.80
2019-05-16T22:42:49.199Z,23.96
2019-05-16T22:45:23.522Z,24.18
2019-05-16T22:47:57.852Z,23.90
2019-05-16T22:50:32.131Z,23.77
2019-05-16T22:53:06.575Z,23.79
2019-05-16T22:55:40.823Z,23.75
2019-05-16T22:58:16.398Z,23.82
2019-05-16T23:00:50.796Z,23.88
2019-05-16T23:03:26.748Z,23.92
2019-05-16T23:06:00.966Z,24.27
2019-05-16T23:08:36.477Z,24.17
2019-05-16T23:11:10.825Z,23.72
2019-05-16T23:13:46.277Z,23.49
2019-05-16T23:16:21.411Z,23.61
2019-05-16T23:18:57.150Z,23.75
2019-05-16T23:21:31.596Z,23.82
2019-05-16T23:24:06.695Z,23.86
2019-05-16T23:26:42.181Z,23.95
2019-05-16T23:29:16.986Z,24.29
2019-05-16T23:31:51.376Z,23.97
2019-05-16T23:34:26.578Z,23.72
2019-05-16T23:37:02.095Z,23.67
2019-05-16T23:39:37.883Z,23.67
2019-05-16T23:42:12.079Z,23.67
2019-05-16T23:44:47.368Z,23.56
2019-05-16T23:47:21.732Z,23.61
2019-05-16T23:49:56.810Z,23.92
2019-05-16T23:52:31.336Z,24.11
2019-05-16T23:55:08.149Z,23.78
2019-05-16T23:57:41.740Z,23.69
